Time;durP1;ratioP1;P1;durP2;ratioP2;P2;SDS_P1;SDS_P2;PMS_P1;PMS_P2;Temp;Humidity;BMP_temperature;BMP_pressure;BME280_temperature;BME280_humidity;BME280_pressure;Samples;Min_cycle;Max_cycle;Signal;HPM_P1;HPM_P2
2023/07/14 00:01:49;;;;;;;7.95;3.15;;;;;;;22.94;61.12;99210.34;4377706;32;33864;-87
2023/07/14 00:04:32;;;;;;;6.72;2.90;;;;;;;23.06;61.14;99215.19;4391247;32;34057;-87
2023/07/14 00:07:01;;;;;;;6.80;2.95;;;;;;;22.92;61.60;99217.47;4389772;32;34532;-87
2023/07/14 00:09:30;;;;;;;6.00;3.25;;;;;;;23.22;60.42;99216.34;4390689;32;34507;-87
2023/07/14 00:11:59;;;;;;;5.70;3.20;;;;;;;23.03;61.23;99216.19;4390018;32;33701;-89
2023/07/14 00:14:27;;;;;;;9.88;3.15;;;;;;;22.59;62.62;99221.25;4365092;32;33456;-86
2023/07/14 00:16:54;;;;;;;6.72;3.28;;;;;;;22.78;61.97;99221.47;4377425;32;33735;-87
2023/07/14 00:19:22;;;;;;;6.45;3.62;;;;;;;22.82;61.61;99222.22;4377483;32;33513;-87
2023/07/14 00:21:52;;;;;;;5.82;3.60;;;;;;;22.32;63.70;99211.66;4391238;32;34659;-87
2023/07/14 00:24:23;;;;;;;8.55;3.22;;;;;;;22.78;61.91;99221.47;4377085;32;33553;-88
2023/07/14 00:26:57;;;;;;;6.43;3.42;;;;;;;22.57;62.75;99223.06;4378039;32;33916;-87
2023/07/14 00:29:25;;;;;;;6.15;3.12;;;;;;;22.85;61.92;99222.09;4390497;32;34610;-87
2023/07/14 00:31:53;;;;;;;7.03;3.67;;;;;;;22.32;63.58;99223.09;4390980;32;33862;-88
2023/07/14 00:34:21;;;;;;;6.65;3.47;;;;;;;22.45;62.81;99222.66;4377087;32;34081;-87
2023/07/14 00:36:49;;;;;;;6.37;3.58;;;;;;;22.26;63.63;99218.00;4377237;32;34231;-87
2023/07/14 00:39:16;;;;;;;5.87;3.03;;;;;;;22.70;62.27;99220.00;4364872;32;33113;-87
2023/07/14 00:41:44;;;;;;;8.25;3.37;;;;;;;22.38;63.53;99218.50;4389563;32;34368;-87
2023/07/14 00:44:15;;;;;;;6.72;3.40;;;;;;;22.25;63.79;99224.19;4377387;32;34981;-88
2023/07/14 00:46:44;;;;;;;7.37;3.78;;;;;;;22.39;63.56;99220.22;4390785;32;34832;-87
2023/07/14 00:49:22;;;;;;;5.75;3.55;;;;;;;22.36;63.53;99215.06;4377464;32;33856;-88
2023/07/14 00:51:49;;;;;;;6.85;3.60;;;;;;;22.49;63.34;99221.63;4389921;32;33783;-87
2023/07/14 00:54:28;;;;;;;5.93;3.25;;;;;;;22.43;63.08;99219.22;4376591;32;34334;-88
2023/07/14 00:56:57;;;;;;;6.25;3.62;;;;;;;22.50;63.33;99218.06;4391109;32;34816;-87
2023/07/14 00:59:33;;;;;;;6.10;3.08;;;;;;;22.51;62.93;99218.03;4390738;32;33372;-87
2023/07/14 01:02:23;;;;;;;5.18;3.22;;;;;;;22.55;63.14;99214.34;4389282;32;33975;-88
2023/07/14 01:04:56;;;;;;;6.00;3.60;;;;;;;22.51;63.10;99217.16;4364702;32;32897;-88
2023/07/14 01:07:28;;;;;;;6.28;3.30;;;;;;;22.25;64.04;99212.78;4377056;32;34211;-88
2023/07/14 01:09:58;;;;;;;7.82;3.28;;;;;;;22.51;62.99;99215.37;4390575;32;33282;-88
2023/07/14 01:12:28;;;;;;;6.35;3.30;;;;;;;22.44;63.03;99216.50;4377289;32;34892;-88
2023/07/14 01:14:58;;;;;;;8.43;3.58;;;;;;;22.41;63.18;99221.03;4390577;32;34896;-86
2023/07/14 01:17:27;;;;;;;7.37;3.55;;;;;;;22.31;63.82;99218.72;4390606;32;34756;-88
2023/07/14 01:19:57;;;;;;;12.15;4.03;;;;;;;22.21;63.69;99227.88;4377327;32;34347;-85
2023/07/14 01:22:43;;;;;;;7.10;3.75;;;;;;;22.21;63.77;99224.37;4389571;32;33367;-87
2023/07/14 01:25:23;;;;;;;6.25;3.50;;;;;;;22.33;63.34;99238.00;4376565;32;34199;-87
2023/07/14 01:27:51;;;;;;;5.45;3.10;;;;;;;22.53;62.58;99232.03;4377171;32;33708;-87
2023/07/14 01:30:19;;;;;;;7.40;3.58;;;;;;;22.39;62.99;99234.31;4390623;32;33226;-86
2023/07/14 01:32:50;;;;;;;7.32;4.03;;;;;;;21.96;64.73;99230.41;4377622;32;33988;-88
2023/07/14 01:35:20;;;;;;;8.25;4.05;;;;;;;21.90;65.18;99230.63;4389376;32;35155;-87
2023/07/14 01:37:50;;;;;;;8.70;5.05;;;;;;;22.01;65.01;99228.50;4390658;32;34523;-88
2023/07/14 01:40:18;;;;;;;8.18;4.75;;;;;;;21.22;68.03;99237.09;4376698;32;33685;-87
2023/07/14 01:42:55;;;;;;;8.75;4.85;;;;;;;21.44;67.58;99233.81;4389079;32;33847;-87
2023/07/14 01:45:24;;;;;;;7.28;3.97;;;;;;;22.12;64.65;99225.47;4376795;32;34494;-87
2023/07/14 01:47:54;;;;;;;10.48;5.20;;;;;;;22.09;64.66;99225.59;4389190;32;34202;-87
2023/07/14 01:50:33;;;;;;;8.43;4.57;;;;;;;22.19;64.56;99232.31;4376920;32;34554;-88
2023/07/14 01:53:08;;;;;;;10.25;4.75;;;;;;;22.05;65.09;99234.53;4376653;32;33627;-88
2023/07/14 01:55:38;;;;;;;8.45;4.85;;;;;;;22.31;64.35;99225.75;4376877;32;34735;-89
2023/07/14 01:58:11;;;;;;;8.00;4.62;;;;;;;22.17;64.04;99234.16;4377210;32;34258;-86
2023/07/14 02:00:39;;;;;;;8.40;4.65;;;;;;;22.28;63.34;99231.16;4376335;32;33243;-86
2023/07/14 02:03:10;;;;;;;7.68;4.87;;;;;;;21.84;64.83;99239.59;4376806;32;34458;-87
2023/07/14 02:05:39;;;;;;;9.52;4.80;;;;;;;21.87;65.07;99236.84;4376940;32;33987;-87
2023/07/14 02:08:12;;;;;;;7.37;4.40;;;;;;;22.09;64.30;99238.81;4389319;32;34120;-87
2023/07/14 02:10:40;;;;;;;7.07;4.37;;;;;;;21.93;65.05;99234.91;4376722;32;34342;-87
2023/07/14 02:13:09;;;;;;;8.20;4.70;;;;;;;22.17;64.12;99241.22;4390208;32;34647;-85
2023/07/14 02:15:37;;;;;;;8.85;4.90;;;;;;;21.92;64.87;99244.63;4376651;32;33706;-87
2023/07/14 02:18:04;;;;;;;8.82;5.03;;;;;;;21.86;64.75;99253.63;4389112;32;33875;-88
2023/07/14 02:20:32;;;;;;;8.20;5.18;;;;;;;21.91;64.72;99244.69;4390208;32;33362;-86
2023/07/14 02:23:02;;;;;;;7.62;4.72;;;;;;;22.01;64.07;99249.62;4390059;32;34653;-88
2023/07/14 02:25:35;;;;;;;7.55;4.65;;;;;;;21.79;64.81;99249.44;4376650;32;35321;-87
2023/07/14 02:28:03;;;;;;;8.35;4.85;;;;;;;21.75;64.82;99253.09;4364253;32;34884;-87
2023/07/14 02:30:33;;;;;;;11.00;4.78;;;;;;;21.52;66.02;99250.31;4390316;32;33806;-86
2023/07/14 02:33:09;;;;;;;8.80;5.07;;;;;;;21.65;65.55;99262.19;4390175;32;33499;-86
2023/07/14 02:35:46;;;;;;;8.52;5.53;;;;;;;21.71;65.17;99258.50;4376598;32;33677;-88
2023/07/14 02:38:16;;;;;;;9.40;5.00;;;;;;;21.42;66.01;99269.94;4389918;32;34190;-87
2023/07/14 02:41:02;;;;;;;8.20;4.70;;;;;;;21.52;65.92;99268.75;4390047;32;33390;-85
2023/07/14 02:43:29;;;;;;;8.90;4.82;;;;;;;21.72;65.23;99276.94;4376278;32;34989;-88
2023/07/14 02:46:01;;;;;;;7.95;4.30;;;;;;;21.38;66.13;99279.72;4389968;32;34175;-89
2023/07/14 02:48:39;;;;;;;6.97;4.40;;;;;;;21.27;66.00;99277.34;4376427;32;34092;-85
2023/07/14 02:51:08;;;;;;;9.27;4.78;;;;;;;21.26;66.41;99288.81;4388866;32;33153;-87
2023/07/14 02:53:35;;;;;;;8.07;4.72;;;;;;;21.04;67.32;99275.38;4388924;32;33325;-86
2023/07/14 02:56:04;;;;;;;10.75;5.25;;;;;;;21.34;66.12;99281.56;4390085;32;34712;-86
2023/07/14 02:58:33;;;;;;;8.88;4.32;;;;;;;21.53;65.51;99278.41;4389719;32;34263;-87
2023/07/14 03:01:02;;;;;;;6.87;4.45;;;;;;;21.61;65.15;99281.66;4389943;32;34301;-87
2023/07/14 03:03:29;;;;;;;9.32;4.53;;;;;;;21.46;65.50;99279.50;4376300;32;34401;-86
2023/07/14 03:05:57;;;;;;;8.75;4.50;;;;;;;21.48;65.38;99285.56;4376138;32;33940;-85
2023/07/14 03:08:28;;;;;;;6.28;4.22;;;;;;;21.68;65.13;99277.94;4389691;32;33640;-88
2023/07/14 03:10:57;;;;;;;8.93;3.92;;;;;;;21.72;64.73;99278.69;4390023;32;33644;-87
2023/07/14 03:13:26;;;;;;;7.85;3.95;;;;;;;21.69;64.26;99289.34;4389885;32;33512;-86
2023/07/14 03:15:53;;;;;;;7.37;4.20;;;;;;;22.25;62.09;99274.38;4376049;32;33992;-87
2023/07/14 03:18:21;;;;;;;6.90;3.65;;;;;;;21.76;63.91;99283.84;4388149;32;33406;-87
2023/07/14 03:20:55;;;;;;;8.88;4.07;;;;;;;21.90;63.30;99283.41;4376371;32;33630;-86
2023/07/14 03:23:23;;;;;;;7.93;3.72;;;;;;;22.09;62.96;99284.56;4375240;32;34393;-86
2023/07/14 03:26:03;;;;;;;9.98;3.90;;;;;;;22.21;62.57;99280.69;4388155;32;33893;-83
2023/07/14 03:28:30;;;;;;;8.88;4.00;;;;;;;21.55;64.23;99293.25;4376185;32;34139;-86
2023/07/14 03:31:01;;;;;;;7.18;4.30;;;;;;;21.62;64.11;99293.94;4375887;32;34941;-83
2023/07/14 03:33:33;;;;;;;6.87;4.10;;;;;;;21.33;65.09;99293.03;4389741;32;33746;-87
2023/07/14 03:36:03;;;;;;;7.25;3.50;;;;;;;21.62;64.18;99296.56;4363544;32;33329;-86
2023/07/14 03:38:30;;;;;;;8.82;4.00;;;;;;;21.77;64.19;99295.25;4388990;32;34297;-87
2023/07/14 03:40:58;;;;;;;7.28;3.85;;;;;;;21.77;64.04;99297.88;4387899;32;34038;-85
2023/07/14 03:43:25;;;;;;;8.15;3.50;;;;;;;21.99;63.29;99292.81;4389259;32;33648;-88
2023/07/14 03:45:53;;;;;;;8.23;3.58;;;;;;;21.72;63.83;99302.44;4389230;32;33937;-88
2023/07/14 03:48:22;;;;;;;7.60;3.62;;;;;;;21.88;63.20;99303.69;4364654;32;33376;-87
2023/07/14 03:50:50;;;;;;;9.70;3.85;;;;;;;21.92;63.09;99301.81;4375041;32;33637;-88
2023/07/14 03:53:18;;;;;;;9.38;3.95;;;;;;;21.66;63.96;99300.00;4375140;32;33577;-86
2023/07/14 03:55:46;;;;;;;8.25;3.70;;;;;;;21.92;63.21;99315.03;4388808;32;33936;-89
2023/07/14 03:58:14;;;;;;;7.25;3.30;;;;;;;21.63;63.69;99314.16;4388908;32;34804;-86
2023/07/14 04:00:42;;;;;;;10.05;4.10;;;;;;;21.38;64.36;99312.22;4388210;32;34759;-87
2023/07/14 04:03:09;;;;;;;8.10;3.78;;;;;;;21.64;63.75;99300.03;4375392;32;33225;-88
2023/07/14 04:05:37;;;;;;;7.90;3.60;;;;;;;21.57;64.27;99307.28;4391202;32;35601;-87
2023/07/14 04:08:05;;;;;;;6.57;3.70;;;;;;;21.19;65.27;99303.09;4391046;32;33859;-87
2023/07/14 04:10:32;;;;;;;6.35;3.40;;;;;;;21.40;64.61;99304.25;4391237;32;33479;-87
2023/07/14 04:13:00;;;;;;;8.38;4.00;;;;;;;21.87;63.25;99305.47;4377701;32;33928;-87
2023/07/14 04:15:28;;;;;;;9.80;3.80;;;;;;;21.61;64.11;99308.03;4391212;32;33695;-87
2023/07/14 04:17:56;;;;;;;6.30;3.45;;;;;;;22.15;61.93;99314.34;4377342;32;34192;-87
2023/07/14 04:20:23;;;;;;;8.18;3.80;;;;;;;22.02;62.33;99313.84;4391072;32;33560;-89
2023/07/14 04:22:51;;;;;;;7.18;3.65;;;;;;;22.37;61.69;99309.22;4376554;32;33908;-85
2023/07/14 04:25:19;;;;;;;7.22;3.70;;;;;;;22.67;60.49;99310.84;4390981;32;34020;-90
2023/07/14 04:27:46;;;;;;;7.95;3.87;;;;;;;22.23;62.00;99309.66;4391313;32;34240;-88
2023/07/14 04:30:13;;;;;;;6.30;3.65;;;;;;;22.24;61.88;99314.91;4391067;32;33338;-86
2023/07/14 04:32:43;;;;;;;8.73;3.83;;;;;;;22.88;60.20;99311.00;4391127;32;33501;-86
2023/07/14 04:35:10;;;;;;;10.05;3.87;;;;;;;23.35;58.62;99319.91;4390858;32;33867;-88
2023/07/14 04:37:38;;;;;;;8.38;3.47;;;;;;;23.74;57.89;99322.84;4390828;32;33834;-84
2023/07/14 04:40:06;;;;;;;7.43;3.58;;;;;;;23.75;57.41;99327.25;4391081;32;34344;-89
2023/07/14 04:42:52;;;;;;;8.65;4.07;;;;;;;23.87;56.81;99330.34;4390867;32;33462;-89
2023/07/14 04:45:20;;;;;;;8.07;3.70;;;;;;;24.08;56.33;99340.06;4376916;32;33464;-87
2023/07/14 04:47:50;;;;;;;8.27;3.37;;;;;;;24.07;56.19;99334.84;4390781;32;34599;-86
2023/07/14 04:50:18;;;;;;;5.90;3.10;;;;;;;24.62;55.33;99325.50;4365334;32;34447;-86
2023/07/14 04:52:46;;;;;;;6.62;3.30;;;;;;;24.89;54.28;99320.84;4376845;32;34147;-90
2023/07/14 04:55:13;;;;;;;8.23;3.50;;;;;;;24.48;54.85;99335.84;4390733;32;34019;-85
2023/07/14 04:57:42;;;;;;;7.00;3.37;;;;;;;24.43;55.28;99348.41;4377022;32;34370;-87
2023/07/14 05:00:11;;;;;;;10.15;3.75;;;;;;;24.94;53.77;99344.50;4390908;32;34256;-90
2023/07/14 05:02:39;;;;;;;6.40;3.37;;;;;;;25.44;52.50;99352.06;4376832;32;33077;-89
2023/07/14 05:05:16;;;;;;;6.50;3.53;;;;;;;25.01;53.11;99356.59;4377436;32;34354;-92
2023/07/14 05:07:44;;;;;;;9.88;4.05;;;;;;;25.20;53.32;99351.38;4377010;32;34294;-88
2023/07/14 05:10:11;;;;;;;7.22;3.15;;;;;;;25.15;52.87;99359.50;4390605;32;33498;-86
2023/07/14 05:12:39;;;;;;;7.20;3.62;;;;;;;25.35;52.94;99363.97;4390769;32;33651;-89
2023/07/14 05:15:10;;;;;;;6.90;3.28;;;;;;;25.61;52.23;99370.75;4390622;32;33908;-88
2023/07/14 05:17:41;;;;;;;8.60;3.60;;;;;;;25.65;52.63;99372.34;4377448;32;34861;-87
2023/07/14 05:20:10;;;;;;;6.55;3.70;;;;;;;25.56;52.71;99372.72;4364173;32;33970;-84
2023/07/14 05:22:39;;;;;;;7.40;3.42;;;;;;;25.27;53.70;99371.41;4375524;32;33167;-86
2023/07/14 05:25:07;;;;;;;6.85;3.80;;;;;;;25.43;53.53;99382.19;4376410;32;34918;-85
2023/07/14 05:27:36;;;;;;;8.85;3.42;;;;;;;25.62;53.19;99376.91;4390447;32;35141;-87
2023/07/14 05:30:04;;;;;;;6.95;3.58;;;;;;;25.46;52.71;99382.06;4390522;32;34412;-88
2023/07/14 05:32:32;;;;;;;6.97;3.90;;;;;;;25.75;53.04;99380.72;4376688;32;33615;-87
2023/07/14 05:35:00;;;;;;;9.13;3.92;;;;;;;25.73;52.82;99387.91;4390394;32;33879;-86
2023/07/14 05:37:27;;;;;;;5.95;3.22;;;;;;;26.28;51.57;99373.84;4376324;32;33149;-87
2023/07/14 05:39:55;;;;;;;6.82;3.53;;;;;;;26.10;51.67;99376.47;4390176;32;34594;-84
2023/07/14 05:42:23;;;;;;;8.95;3.75;;;;;;;26.18;51.24;99376.97;4390138;32;34575;-87
2023/07/14 05:44:50;;;;;;;9.10;4.00;;;;;;;26.07;51.84;99384.59;4390374;32;35155;-86
2023/07/14 05:47:23;;;;;;;6.05;3.08;;;;;;;26.02;50.98;99388.38;4390640;32;33352;-86
2023/07/14 05:49:52;;;;;;;9.43;4.30;;;;;;;26.18;52.36;99382.28;4377156;32;33586;-86
2023/07/14 05:52:19;;;;;;;11.15;4.10;;;;;;;26.27;51.03;99380.97;4390161;32;34625;-87
2023/07/14 05:54:47;;;;;;;10.25;3.95;;;;;;;26.70;49.65;99384.19;4390511;32;34185;-87
2023/07/14 05:57:14;;;;;;;7.68;3.50;;;;;;;26.61;50.04;99393.50;4376830;32;33589;-84
2023/07/14 05:59:42;;;;;;;10.43;3.83;;;;;;;26.73;49.05;99384.06;4376741;32;32285;-86
2023/07/14 06:02:13;;;;;;;9.27;3.85;;;;;;;26.75;49.34;99387.50;4390873;32;33521;-86
2023/07/14 06:04:41;;;;;;;8.25;4.50;;;;;;;26.66;49.34;99387.94;4376546;32;34192;-86
2023/07/14 06:07:09;;;;;;;9.50;4.20;;;;;;;26.53;48.50;99389.50;4389236;32;34861;-86
2023/07/14 06:09:38;;;;;;;8.75;4.00;;;;;;;26.55;48.79;99387.62;4390797;32;33334;-85
2023/07/14 06:12:07;;;;;;;6.90;4.20;;;;;;;26.90;48.42;99386.72;4364160;32;33178;-85
2023/07/14 06:14:36;;;;;;;8.80;4.28;;;;;;;26.89;47.78;99389.47;4389267;32;34818;-87
2023/07/14 06:17:05;;;;;;;6.20;3.83;;;;;;;26.78;48.44;99391.78;4376762;32;33438;-86
2023/07/14 06:19:33;;;;;;;7.05;3.97;;;;;;;27.39;48.02;99383.37;4390338;32;33383;-86
2023/07/14 06:22:00;;;;;;;6.28;3.50;;;;;;;27.11;47.84;99386.59;4376645;32;33189;-86
2023/07/14 06:24:28;;;;;;;9.00;4.00;;;;;;;27.65;48.01;99396.16;4390394;32;34789;-86
2023/07/14 06:26:55;;;;;;;8.02;3.75;;;;;;;27.99;46.80;99402.31;4389553;32;34182;-87
2023/07/14 06:29:23;;;;;;;9.95;3.62;;;;;;;28.04;46.92;99402.09;4390376;32;33046;-85
2023/07/14 06:31:50;;;;;;;7.47;4.15;;;;;;;27.84;46.23;99404.06;4390363;32;34844;-86
2023/07/14 06:34:18;;;;;;;8.85;3.92;;;;;;;27.71;46.26;99399.44;4389959;32;34193;-86
2023/07/14 06:36:46;;;;;;;9.68;4.22;;;;;;;27.82;46.36;99407.72;4376607;32;33872;-86
2023/07/14 06:39:13;;;;;;;7.55;3.70;;;;;;;28.42;45.49;99397.31;4390212;32;33459;-87
2023/07/14 06:41:41;;;;;;;8.35;4.10;;;;;;;28.57;45.01;99404.44;4390013;32;34136;-86
2023/07/14 06:44:09;;;;;;;6.62;3.75;;;;;;;27.73;46.32;99411.72;4390073;32;34983;-86
2023/07/14 06:46:53;;;;;;;7.53;3.65;;;;;;;28.28;46.99;99413.19;4390012;32;34970;-85
2023/07/14 06:49:20;;;;;;;6.72;3.45;;;;;;;28.62;44.46;99404.16;4389948;32;34437;-87
2023/07/14 06:51:53;;;;;;;7.82;3.75;;;;;;;28.53;43.91;99410.88;4390216;32;33581;-85
2023/07/14 06:54:20;;;;;;;8.10;3.17;;;;;;;28.38;43.81;99406.44;4389950;32;33924;-86
2023/07/14 06:56:48;;;;;;;5.47;3.03;;;;;;;28.32;43.17;99407.59;4376108;32;33841;-87
2023/07/14 06:59:15;;;;;;;6.93;3.60;;;;;;;28.25;42.70;99400.03;4376385;32;33457;-86
2023/07/14 07:01:43;;;;;;;8.95;3.65;;;;;;;27.93;43.52;99416.00;4389676;32;33972;-86
2023/07/14 07:04:11;;;;;;;8.75;3.37;;;;;;;28.51;43.38;99396.75;4389889;32;34170;-86
2023/07/14 07:06:38;;;;;;;7.05;2.60;;;;;;;27.81;43.85;99398.03;4389974;32;34561;-88
2023/07/14 07:09:06;;;;;;;6.53;2.90;;;;;;;28.09;44.04;99402.69;4389664;32;34196;-86
2023/07/14 07:11:34;;;;;;;7.10;3.97;;;;;;;28.41;43.76;99408.03;4390098;32;33532;-87
2023/07/14 07:14:02;;;;;;;6.70;3.05;;;;;;;28.50;42.16;99403.06;4389807;32;34077;-86
2023/07/14 07:16:29;;;;;;;6.90;3.47;;;;;;;28.58;42.25;99408.81;4389763;32;35038;-86
2023/07/14 07:18:57;;;;;;;7.78;3.08;;;;;;;28.22;42.60;99410.84;4389614;32;34528;-85
2023/07/14 07:21:24;;;;;;;5.78;2.97;;;;;;;28.72;42.32;99407.16;4389824;32;33637;-86
2023/07/14 07:23:52;;;;;;;7.37;3.20;;;;;;;29.11;41.89;99403.97;4389768;32;33816;-86
2023/07/14 07:26:19;;;;;;;7.80;3.10;;;;;;;28.30;43.85;99408.63;4390014;32;34271;-85
2023/07/14 07:28:47;;;;;;;6.00;3.10;;;;;;;28.79;41.98;99417.38;4389708;32;34374;-85
2023/07/14 07:31:15;;;;;;;5.20;3.28;;;;;;;28.81;41.77;99411.94;4389726;32;34044;-87
2023/07/14 07:33:42;;;;;;;5.72;3.33;;;;;;;27.89;41.47;99419.78;4388175;32;33866;-86
2023/07/14 07:36:14;;;;;;;8.18;3.22;;;;;;;28.28;42.23;99407.84;4389468;32;33829;-86
2023/07/14 07:38:47;;;;;;;6.82;3.03;;;;;;;28.82;42.32;99413.66;4376381;32;32352;-86
2023/07/14 07:41:19;;;;;;;5.22;3.10;;;;;;;28.70;42.46;99411.72;4390308;32;34348;-85
2023/07/14 07:43:46;;;;;;;6.30;3.87;;;;;;;28.78;41.53;99417.47;4377337;32;34076;-87
2023/07/14 07:46:14;;;;;;;6.95;3.15;;;;;;;28.21;41.83;99417.13;4391407;32;34532;-87
2023/07/14 07:48:44;;;;;;;6.82;3.37;;;;;;;28.13;42.92;99415.75;4377704;32;33554;-86
2023/07/14 07:51:12;;;;;;;7.00;3.62;;;;;;;28.05;43.34;99422.47;4391191;32;34115;-86
2023/07/14 07:53:40;;;;;;;5.65;2.90;;;;;;;27.67;43.17;99409.38;4391329;32;34188;-86
2023/07/14 07:56:09;;;;;;;7.35;3.30;;;;;;;27.59;43.04;99415.13;4391346;32;34901;-86
2023/07/14 07:58:36;;;;;;;6.15;3.33;;;;;;;28.07;44.17;99408.13;4391371;32;34240;-86
2023/07/14 08:01:05;;;;;;;7.03;3.10;;;;;;;27.61;44.42;99410.56;4390972;32;33889;-86
2023/07/14 08:03:35;;;;;;;6.97;3.20;;;;;;;28.19;42.26;99417.22;4377501;32;34316;-86
2023/07/14 08:06:05;;;;;;;5.00;2.85;;;;;;;27.62;44.34;99406.97;4391433;32;34892;-84
2023/07/14 08:08:33;;;;;;;4.93;2.40;;;;;;;27.76;42.96;99408.91;4377880;32;33359;-87
2023/07/14 08:11:01;;;;;;;8.70;3.33;;;;;;;27.91;43.81;99417.03;4377527;32;33649;-86
2023/07/14 08:13:29;;;;;;;6.18;2.90;;;;;;;27.93;42.57;99416.00;4391169;32;34223;-85
2023/07/14 08:15:57;;;;;;;4.82;2.75;;;;;;;28.17;42.20;99413.78;4391007;32;33923;-84
2023/07/14 08:18:26;;;;;;;9.85;2.90;;;;;;;28.21;40.74;99414.47;4377480;32;34660;-86
2023/07/14 08:20:53;;;;;;;7.85;3.55;;;;;;;28.53;41.25;99413.56;4391230;32;33846;-86
2023/07/14 08:23:22;;;;;;;8.05;3.00;;;;;;;28.24;41.93;99414.31;4391180;32;34038;-86
2023/07/14 08:25:52;;;;;;;8.18;2.60;;;;;;;28.70;41.25;99417.06;4377249;32;32523;-85
2023/07/14 08:28:20;;;;;;;8.35;2.87;;;;;;;28.69;39.18;99410.00;4391208;32;33462;-86
2023/07/14 08:30:51;;;;;;;6.93;2.50;;;;;;;28.94;39.91;99404.94;4391010;32;33796;-86
2023/07/14 08:33:21;;;;;;;6.20;2.62;;;;;;;29.29;39.56;99408.22;4391094;32;34640;-87
2023/07/14 08:35:49;;;;;;;9.38;2.17;;;;;;;29.00;41.78;99404.59;4377817;32;33368;-86
2023/07/14 08:38:17;;;;;;;6.70;2.65;;;;;;;29.31;39.11;99408.09;4377540;32;33857;-86
2023/07/14 08:40:54;;;;;;;4.85;2.37;;;;;;;29.12;39.39;99407.50;4391126;32;34668;-84
2023/07/14 08:43:32;;;;;;;5.70;2.30;;;;;;;29.28;38.59;99411.84;4377476;32;33724;-85
2023/07/14 08:46:05;;;;;;;6.70;2.37;;;;;;;29.54;36.86;99402.22;4390984;32;34106;-85
2023/07/14 08:48:37;;;;;;;5.22;2.10;;;;;;;29.50;37.56;99402.50;4377661;32;33538;-87
2023/07/14 08:51:16;;;;;;;3.35;1.80;;;;;;;29.93;36.75;99405.19;4376932;32;33507;-86
2023/07/14 08:53:52;;;;;;;4.32;2.03;;;;;;;29.58;36.74;99400.25;4389779;32;33873;-85
2023/07/14 08:56:20;;;;;;;5.12;1.90;;;;;;;28.93;36.21;99405.87;4377518;32;33949;-85
2023/07/14 08:58:48;;;;;;;3.95;2.00;;;;;;;28.89;37.24;99417.69;4377410;32;34377;-86
2023/07/14 09:01:25;;;;;;;4.60;2.28;;;;;;;28.53;37.76;99410.88;4364763;32;33917;-85
2023/07/14 09:03:58;;;;;;;4.22;1.80;;;;;;;28.93;37.06;99411.22;4377292;32;34137;-86
2023/07/14 09:06:30;;;;;;;4.57;1.80;;;;;;;29.14;36.88;99410.97;4377270;32;34843;-86
2023/07/14 09:08:58;;;;;;;5.40;2.30;;;;;;;29.13;36.31;99414.56;4364556;32;33485;-87
2023/07/14 09:11:35;;;;;;;5.53;2.12;;;;;;;28.96;36.57;99411.06;4377117;32;34593;-86
2023/07/14 09:14:26;;;;;;;3.87;1.80;;;;;;;29.45;35.58;99416.16;4377117;32;34920;-85
2023/07/14 09:17:05;;;;;;;4.80;1.90;;;;;;;29.29;34.46;99412.69;4364503;32;33859;-85
2023/07/14 09:19:54;;;;;;;5.40;2.30;;;;;;;29.61;34.90;99412.56;4377230;32;33315;-85
2023/07/14 09:22:38;;;;;;;5.03;1.87;;;;;;;29.42;33.66;99421.66;4364949;32;34880;-86
2023/07/14 09:25:15;;;;;;;4.00;2.00;;;;;;;29.73;33.36;99419.81;4364734;32;32955;-87
2023/07/14 09:27:43;;;;;;;4.82;2.10;;;;;;;29.69;31.73;99412.94;4390757;32;33757;-86
2023/07/14 09:30:26;;;;;;;5.07;2.03;;;;;;;29.45;32.19;99416.16;4389294;32;34383;-87
2023/07/14 09:33:03;;;;;;;4.20;1.80;;;;;;;29.71;33.47;99411.06;4390670;32;32411;-87
2023/07/14 09:35:31;;;;;;;4.15;2.08;;;;;;;29.36;32.23;99413.16;4377114;32;34279;-86
2023/07/14 09:37:59;;;;;;;4.70;2.40;;;;;;;29.37;33.30;99406.91;4390866;32;33770;-86
2023/07/14 09:40:31;;;;;;;5.00;2.00;;;;;;;29.33;32.79;99400.88;4390595;32;33421;-86
2023/07/14 09:43:01;;;;;;;4.90;2.10;;;;;;;29.74;33.41;99400.19;4390440;32;33984;-86
2023/07/14 09:45:36;;;;;;;4.97;2.17;;;;;;;29.20;34.18;99408.75;4377109;32;34722;-86
2023/07/14 09:48:22;;;;;;;6.50;1.95;;;;;;;29.45;32.88;99399.28;4389314;32;34411;-86
2023/07/14 09:50:58;;;;;;;6.95;2.22;;;;;;;29.75;34.27;99401.88;4364426;32;33779;-86
2023/07/14 09:53:27;;;;;;;6.90;2.08;;;;;;;29.39;34.17;99392.47;4376905;32;33703;-87
2023/07/14 09:56:07;;;;;;;6.15;1.90;;;;;;;29.87;34.89;99398.44;4376858;32;34094;-87
2023/07/14 09:58:35;;;;;;;6.40;2.15;;;;;;;30.08;35.45;99388.22;4376778;32;34053;-86
2023/07/14 10:01:11;;;;;;;4.50;1.87;;;;;;;29.85;31.92;99396.81;4390743;32;33584;-86
2023/07/14 10:03:47;;;;;;;5.43;2.17;;;;;;;30.08;32.60;99398.91;4364725;32;35020;-86
2023/07/14 10:06:25;;;;;;;7.10;2.08;;;;;;;30.25;32.06;99390.66;4390333;32;33942;-85
2023/07/14 10:08:58;;;;;;;5.22;2.22;;;;;;;30.12;32.39;99391.50;4390663;32;34098;-86
2023/07/14 10:11:29;;;;;;;6.03;2.20;;;;;;;30.35;31.66;99390.94;4376690;32;33757;-86
2023/07/14 10:14:00;;;;;;;4.28;2.17;;;;;;;30.22;33.57;99390.00;4390518;32;34891;-86
2023/07/14 10:16:32;;;;;;;7.65;2.45;;;;;;;30.02;31.87;99385.91;4376677;32;35115;-86
2023/07/14 10:19:21;;;;;;;4.97;2.08;;;;;;;30.06;31.73;99384.75;4377236;32;34117;-84
2023/07/14 10:21:54;;;;;;;8.45;2.70;;;;;;;30.17;33.12;99379.62;4376780;32;33811;-84
2023/07/14 10:24:23;;;;;;;5.75;2.55;;;;;;;29.38;33.83;99388.09;4390322;32;34735;-85
2023/07/14 10:26:56;;;;;;;5.32;2.35;;;;;;;29.61;33.62;99377.84;4390028;32;33954;-85
2023/07/14 10:29:26;;;;;;;5.43;2.80;;;;;;;29.85;34.49;99381.63;4376879;32;33834;-85
2023/07/14 10:32:24;;;;;;;5.47;2.35;;;;;;;30.22;32.31;99371.28;4364496;32;32870;-86
2023/07/14 10:35:14;;;;;;;4.53;2.30;;;;;;;30.15;32.70;99378.81;4364471;32;32895;-86
2023/07/14 10:37:51;;;;;;;6.90;2.65;;;;;;;30.10;33.53;99375.59;4390311;32;33779;-85
2023/07/14 10:40:22;;;;;;;7.55;3.08;;;;;;;30.01;33.45;99369.03;4390322;32;34103;-86
2023/07/14 10:43:03;;;;;;;6.60;3.17;;;;;;;30.53;34.44;99376.37;4364619;32;33656;-84
2023/07/14 10:45:32;;;;;;;7.87;3.30;;;;;;;30.62;36.44;99376.72;4376892;32;34074;-86
2023/07/14 10:48:12;;;;;;;6.85;2.72;;;;;;;30.95;34.63;99363.75;4389992;32;34104;-86
2023/07/14 10:51:03;;;;;;;6.25;3.53;;;;;;;31.30;34.26;99363.19;4371346;32;175857;-86
2023/07/14 10:54:05;;;;;;;6.80;3.50;;;;;;;31.50;33.70;99361.78;4376633;32;34043;-84
2023/07/14 10:56:45;;;;;;;7.45;2.55;;;;;;;30.25;35.34;99357.72;4357668;32;33322;-86
2023/07/14 10:59:20;;;;;;;6.20;2.87;;;;;;;30.49;35.82;99361.44;4363946;32;34296;-84
2023/07/14 11:01:57;;;;;;;5.87;3.30;;;;;;;30.67;35.89;99359.38;4363958;32;34824;-86
2023/07/14 11:04:56;;;;;;;6.07;2.83;;;;;;;30.96;35.92;99354.75;4376420;32;33795;-85
2023/07/14 11:07:35;;;;;;;6.32;2.90;;;;;;;31.16;34.19;99353.37;4366183;32;33554;-84
2023/07/14 11:10:12;;;;;;;6.05;2.95;;;;;;;31.14;34.53;99343.72;4389724;32;34142;-84
2023/07/14 11:12:46;;;;;;;6.15;3.10;;;;;;;30.93;36.22;99349.59;4376345;32;34095;-86
2023/07/14 11:15:25;;;;;;;6.90;3.28;;;;;;;30.50;36.24;99340.94;4380810;32;34101;-87
2023/07/14 11:18:03;;;;;;;6.20;3.15;;;;;;;29.76;36.09;99340.31;4369128;32;33709;-86
2023/07/14 11:20:41;;;;;;;5.20;3.28;;;;;;;30.33;35.26;99344.69;4381069;32;34862;-86
2023/07/14 11:23:23;;;;;;;6.43;2.72;;;;;;;30.24;35.79;99350.66;4393624;32;33771;-85
2023/07/14 11:26:12;;;;;;;5.68;3.00;;;;;;;30.43;36.42;99344.97;4394473;32;33593;-86
2023/07/14 11:28:58;;;;;;;5.93;3.22;;;;;;;30.76;35.91;99347.22;4394735;32;34706;-86
2023/07/14 11:31:31;;;;;;;11.68;3.30;;;;;;;30.87;35.44;99341.97;4380869;32;33496;-88
2023/07/14 11:34:17;;;;;;;8.02;3.33;;;;;;;30.32;35.47;99343.00;4380866;32;32775;-84
2023/07/14 11:36:57;;;;;;;8.23;2.90;;;;;;;30.45;33.89;99346.56;4394658;32;33562;-86
2023/07/14 11:39:40;;;;;;;6.03;2.90;;;;;;;30.17;35.07;99341.31;4394268;32;33575;-85
2023/07/14 11:42:34;;;;;;;6.32;2.85;;;;;;;30.21;36.28;99341.00;4394538;32;34030;-85
2023/07/14 11:45:06;;;;;;;5.22;2.87;;;;;;;29.86;35.79;99337.94;4366164;32;32576;-87
2023/07/14 11:47:37;;;;;;;7.00;3.00;;;;;;;30.39;36.02;99328.25;4380635;32;34024;-85
2023/07/14 11:50:21;;;;;;;6.40;2.78;;;;;;;30.36;36.24;99333.81;4380819;32;33641;-87
2023/07/14 11:53:07;;;;;;;5.50;2.85;;;;;;;30.35;36.63;99337.44;4393947;32;34534;-86
2023/07/14 11:55:38;;;;;;;6.03;2.92;;;;;;;30.37;36.68;99335.50;4394250;32;33730;-86